sensor_id;sensor_type;location;lat;lon;timestamp;temperature;humidity
12013;DHT22;6065;48.138;16.402;2023-07-30T00:00:58;24.50;94.30
12013;DHT22;6065;48.138;16.402;2023-07-30T00:03:25;24.60;94.30
12013;DHT22;6065;48.138;16.402;2023-07-30T00:05:52;24.50;94.30
12013;DHT22;6065;48.138;16.402;2023-07-30T00:08:19;24.40;94.50
12013;DHT22;6065;48.138;16.402;2023-07-30T00:10:46;24.30;94.60
12013;DHT22;6065;48.138;16.402;2023-07-30T00:13:14;24.30;94.70
12013;DHT22;6065;48.138;16.402;2023-07-30T00:15:40;24.30;94.70
12013;DHT22;6065;48.138;16.402;2023-07-30T00:18:07;24.40;94.60
12013;DHT22;6065;48.138;16.402;2023-07-30T00:20:34;24.40;94.70
12013;DHT22;6065;48.138;16.402;2023-07-30T00:23:01;24.50;94.50
12013;DHT22;6065;48.138;16.402;2023-07-30T00:25:27;24.50;94.50
12013;DHT22;6065;48.138;16.402;2023-07-30T00:27:54;24.60;94.50
12013;DHT22;6065;48.138;16.402;2023-07-30T00:30:22;24.60;94.40
12013;DHT22;6065;48.138;16.402;2023-07-30T00:32:49;24.60;94.40
12013;DHT22;6065;48.138;16.402;2023-07-30T00:35:16;24.60;94.70
12013;DHT22;6065;48.138;16.402;2023-07-30T00:37:42;24.50;95.00
12013;DHT22;6065;48.138;16.402;2023-07-30T00:40:09;24.60;95.00
12013;DHT22;6065;48.138;16.402;2023-07-30T00:42:36;24.60;95.00
12013;DHT22;6065;48.138;16.402;2023-07-30T00:45:03;24.60;94.70
12013;DHT22;6065;48.138;16.402;2023-07-30T00:47:32;24.60;94.70
12013;DHT22;6065;48.138;16.402;2023-07-30T00:49:59;24.60;94.70
12013;DHT22;6065;48.138;16.402;2023-07-30T00:52:25;24.60;94.70
12013;DHT22;6065;48.138;16.402;2023-07-30T00:54:52;24.60;94.60
12013;DHT22;6065;48.138;16.402;2023-07-30T00:57:20;24.60;94.40
12013;DHT22;6065;48.138;16.402;2023-07-30T00:59:48;24.60;94.40
12013;DHT22;6065;48.138;16.402;2023-07-30T01:02:16;24.50;94.30
12013;DHT22;6065;48.138;16.402;2023-07-30T01:04:44;24.50;94.10
12013;DHT22;6065;48.138;16.402;2023-07-30T01:07:10;24.50;94.20
12013;DHT22;6065;48.138;16.402;2023-07-30T01:09:37;24.40;94.20
12013;DHT22;6065;48.138;16.402;2023-07-30T01:12:04;24.40;94.30
12013;DHT22;6065;48.138;16.402;2023-07-30T01:14:32;24.40;94.50
12013;DHT22;6065;48.138;16.402;2023-07-30T01:16:58;24.40;94.40
12013;DHT22;6065;48.138;16.402;2023-07-30T01:19:25;24.40;94.40
12013;DHT22;6065;48.138;16.402;2023-07-30T01:21:53;24.40;94.40
12013;DHT22;6065;48.138;16.402;2023-07-30T01:24:20;24.40;94.50
12013;DHT22;6065;48.138;16.402;2023-07-30T01:26:52;24.40;94.40
12013;DHT22;6065;48.138;16.402;2023-07-30T01:29:21;24.40;94.20
12013;DHT22;6065;48.138;16.402;2023-07-30T01:31:49;24.40;94.10
12013;DHT22;6065;48.138;16.402;2023-07-30T01:34:18;24.30;94.10
12013;DHT22;6065;48.138;16.402;2023-07-30T01:36:46;24.30;94.10
12013;DHT22;6065;48.138;16.402;2023-07-30T01:39:14;24.30;94.00
12013;DHT22;6065;48.138;16.402;2023-07-30T01:41:42;24.30;93.70
12013;DHT22;6065;48.138;16.402;2023-07-30T01:44:08;24.30;93.80
12013;DHT22;6065;48.138;16.402;2023-07-30T01:46:35;24.30;93.80
12013;DHT22;6065;48.138;16.402;2023-07-30T01:49:02;24.30;93.80
12013;DHT22;6065;48.138;16.402;2023-07-30T01:51:28;24.30;93.70
12013;DHT22;6065;48.138;16.402;2023-07-30T01:53:55;24.30;93.70
12013;DHT22;6065;48.138;16.402;2023-07-30T01:56:23;24.30;93.60
12013;DHT22;6065;48.138;16.402;2023-07-30T01:58:50;24.30;93.60
12013;DHT22;6065;48.138;16.402;2023-07-30T02:01:17;24.30;93.70
12013;DHT22;6065;48.138;16.402;2023-07-30T02:03:43;24.30;93.60
12013;DHT22;6065;48.138;16.402;2023-07-30T02:06:10;24.30;93.70
12013;DHT22;6065;48.138;16.402;2023-07-30T02:08:37;24.20;93.60
12013;DHT22;6065;48.138;16.402;2023-07-30T02:11:04;24.30;93.50
12013;DHT22;6065;48.138;16.402;2023-07-30T02:13:32;24.20;93.60
12013;DHT22;6065;48.138;16.402;2023-07-30T02:15:58;24.20;93.60
12013;DHT22;6065;48.138;16.402;2023-07-30T02:18:25;24.20;93.60
12013;DHT22;6065;48.138;16.402;2023-07-30T02:20:52;24.20;93.60
12013;DHT22;6065;48.138;16.402;2023-07-30T02:23:18;24.20;93.50
12013;DHT22;6065;48.138;16.402;2023-07-30T02:25:45;24.20;93.40
12013;DHT22;6065;48.138;16.402;2023-07-30T02:28:12;24.20;93.40
12013;DHT22;6065;48.138;16.402;2023-07-30T02:30:40;24.20;93.30
12013;DHT22;6065;48.138;16.402;2023-07-30T02:33:06;24.20;93.40
12013;DHT22;6065;48.138;16.402;2023-07-30T02:35:33;24.20;93.30
12013;DHT22;6065;48.138;16.402;2023-07-30T02:38:00;24.20;93.30
12013;DHT22;6065;48.138;16.402;2023-07-30T02:40:26;24.20;93.30
12013;DHT22;6065;48.138;16.402;2023-07-30T02:42:53;24.20;93.30
12013;DHT22;6065;48.138;16.402;2023-07-30T02:45:20;24.20;93.30
12013;DHT22;6065;48.138;16.402;2023-07-30T02:47:48;24.20;93.30
12013;DHT22;6065;48.138;16.402;2023-07-30T02:50:14;24.20;93.20
12013;DHT22;6065;48.138;16.402;2023-07-30T02:52:41;24.20;93.30
12013;DHT22;6065;48.138;16.402;2023-07-30T02:55:08;24.10;93.30
12013;DHT22;6065;48.138;16.402;2023-07-30T02:57:35;24.10;93.40
12013;DHT22;6065;48.138;16.402;2023-07-30T03:00:01;24.10;93.40
12013;DHT22;6065;48.138;16.402;2023-07-30T03:02:29;24.10;93.40
12013;DHT22;6065;48.138;16.402;2023-07-30T03:04:57;24.10;93.50
12013;DHT22;6065;48.138;16.402;2023-07-30T03:07:24;24.10;93.40
12013;DHT22;6065;48.138;16.402;2023-07-30T03:09:51;24.10;93.40
12013;DHT22;6065;48.138;16.402;2023-07-30T03:12:17;24.20;93.40
12013;DHT22;6065;48.138;16.402;2023-07-30T03:14:44;24.10;93.40
12013;DHT22;6065;48.138;16.402;2023-07-30T03:17:11;24.10;93.40
12013;DHT22;6065;48.138;16.402;2023-07-30T03:19:37;24.10;93.40
12013;DHT22;6065;48.138;16.402;2023-07-30T03:22:06;24.10;93.50
12013;DHT22;6065;48.138;16.402;2023-07-30T03:24:32;24.00;93.60
12013;DHT22;6065;48.138;16.402;2023-07-30T03:26:59;24.10;93.70
12013;DHT22;6065;48.138;16.402;2023-07-30T03:29:25;24.10;93.70
12013;DHT22;6065;48.138;16.402;2023-07-30T03:31:52;24.00;93.60
12013;DHT22;6065;48.138;16.402;2023-07-30T03:34:19;24.00;93.80
12013;DHT22;6065;48.138;16.402;2023-07-30T03:36:46;23.90;93.80
12013;DHT22;6065;48.138;16.402;2023-07-30T03:39:14;23.90;93.90
12013;DHT22;6065;48.138;16.402;2023-07-30T03:41:40;23.90;94.00
12013;DHT22;6065;48.138;16.402;2023-07-30T03:44:08;23.90;94.00
12013;DHT22;6065;48.138;16.402;2023-07-30T03:46:35;23.90;94.00
12013;DHT22;6065;48.138;16.402;2023-07-30T03:49:02;23.80;94.10
12013;DHT22;6065;48.138;16.402;2023-07-30T03:51:28;23.80;94.00
12013;DHT22;6065;48.138;16.402;2023-07-30T03:53:55;23.90;94.10
12013;DHT22;6065;48.138;16.402;2023-07-30T03:56:23;23.90;94.10
12013;DHT22;6065;48.138;16.402;2023-07-30T03:58:50;23.80;94.20
12013;DHT22;6065;48.138;16.402;2023-07-30T04:01:17;23.70;94.30
12013;DHT22;6065;48.138;16.402;2023-07-30T04:03:43;23.50;94.40
12013;DHT22;6065;48.138;16.402;2023-07-30T04:06:10;23.50;94.60
12013;DHT22;6065;48.138;16.402;2023-07-30T04:08:37;23.50;94.70
12013;DHT22;6065;48.138;16.402;2023-07-30T04:11:04;23.50;94.70
12013;DHT22;6065;48.138;16.402;2023-07-30T04:13:32;23.50;94.80
12013;DHT22;6065;48.138;16.402;2023-07-30T04:15:59;23.50;94.80
12013;DHT22;6065;48.138;16.402;2023-07-30T04:18:25;23.50;94.90
12013;DHT22;6065;48.138;16.402;2023-07-30T04:20:53;23.50;94.90
12013;DHT22;6065;48.138;16.402;2023-07-30T04:23:20;23.50;94.90
12013;DHT22;6065;48.138;16.402;2023-07-30T04:25:48;23.60;94.90
12013;DHT22;6065;48.138;16.402;2023-07-30T04:28:15;23.70;94.90
12013;DHT22;6065;48.138;16.402;2023-07-30T04:30:43;23.60;94.80
12013;DHT22;6065;48.138;16.402;2023-07-30T04:33:10;23.70;94.70
12013;DHT22;6065;48.138;16.402;2023-07-30T04:35:36;23.70;94.70
12013;DHT22;6065;48.138;16.402;2023-07-30T04:38:03;23.80;94.60
12013;DHT22;6065;48.138;16.402;2023-07-30T04:40:30;23.80;94.60
12013;DHT22;6065;48.138;16.402;2023-07-30T04:42:56;23.80;94.70
12013;DHT22;6065;48.138;16.402;2023-07-30T04:45:23;23.80;94.70
12013;DHT22;6065;48.138;16.402;2023-07-30T04:47:51;23.80;94.70
12013;DHT22;6065;48.138;16.402;2023-07-30T04:50:18;23.80;94.60
12013;DHT22;6065;48.138;16.402;2023-07-30T04:52:44;23.80;94.60
12013;DHT22;6065;48.138;16.402;2023-07-30T04:55:11;23.80;94.80
12013;DHT22;6065;48.138;16.402;2023-07-30T04:57:38;23.90;94.60
12013;DHT22;6065;48.138;16.402;2023-07-30T05:00:05;23.80;94.50
12013;DHT22;6065;48.138;16.402;2023-07-30T05:02:32;23.90;94.60
12013;DHT22;6065;48.138;16.402;2023-07-30T05:05:00;23.90;94.60
12013;DHT22;6065;48.138;16.402;2023-07-30T05:07:27;23.90;94.70
12013;DHT22;6065;48.138;16.402;2023-07-30T05:09:54;23.90;94.80
12013;DHT22;6065;48.138;16.402;2023-07-30T05:12:20;23.80;94.90
12013;DHT22;6065;48.138;16.402;2023-07-30T05:14:47;23.80;94.90
12013;DHT22;6065;48.138;16.402;2023-07-30T05:17:14;23.80;95.10
12013;DHT22;6065;48.138;16.402;2023-07-30T05:19:40;23.80;95.00
12013;DHT22;6065;48.138;16.402;2023-07-30T05:22:08;23.80;95.20
12013;DHT22;6065;48.138;16.402;2023-07-30T05:24:35;23.70;95.30
12013;DHT22;6065;48.138;16.402;2023-07-30T05:27:03;23.80;95.30
12013;DHT22;6065;48.138;16.402;2023-07-30T05:29:29;23.80;95.30
12013;DHT22;6065;48.138;16.402;2023-07-30T05:31:56;23.80;95.20
12013;DHT22;6065;48.138;16.402;2023-07-30T05:34:23;23.70;95.10
12013;DHT22;6065;48.138;16.402;2023-07-30T05:36:50;23.80;95.10
12013;DHT22;6065;48.138;16.402;2023-07-30T05:39:18;23.80;94.90
12013;DHT22;6065;48.138;16.402;2023-07-30T05:41:44;23.80;95.00
12013;DHT22;6065;48.138;16.402;2023-07-30T05:44:11;23.80;94.90
12013;DHT22;6065;48.138;16.402;2023-07-30T05:46:38;23.80;95.00
12013;DHT22;6065;48.138;16.402;2023-07-30T05:49:04;23.80;95.30
12013;DHT22;6065;48.138;16.402;2023-07-30T05:51:31;23.80;95.60
12013;DHT22;6065;48.138;16.402;2023-07-30T05:53:58;23.80;95.80
12013;DHT22;6065;48.138;16.402;2023-07-30T05:56:26;23.80;95.70
12013;DHT22;6065;48.138;16.402;2023-07-30T05:58:52;23.80;95.80
12013;DHT22;6065;48.138;16.402;2023-07-30T06:01:19;23.80;95.90
12013;DHT22;6065;48.138;16.402;2023-07-30T06:03:46;23.90;96.00
12013;DHT22;6065;48.138;16.402;2023-07-30T06:06:13;23.80;96.10
12013;DHT22;6065;48.138;16.402;2023-07-30T06:08:39;23.90;95.90
12013;DHT22;6065;48.138;16.402;2023-07-30T06:11:06;23.80;96.10
12013;DHT22;6065;48.138;16.402;2023-07-30T06:13:34;23.80;96.50
12013;DHT22;6065;48.138;16.402;2023-07-30T06:16:02;23.80;96.90
12013;DHT22;6065;48.138;16.402;2023-07-30T06:18:29;23.80;97.20
12013;DHT22;6065;48.138;16.402;2023-07-30T06:20:55;23.80;97.50
12013;DHT22;6065;48.138;16.402;2023-07-30T06:23:22;23.80;97.30
12013;DHT22;6065;48.138;16.402;2023-07-30T06:25:49;23.80;97.30
12013;DHT22;6065;48.138;16.402;2023-07-30T06:28:15;23.80;97.20
12013;DHT22;6065;48.138;16.402;2023-07-30T06:30:44;23.80;97.20
12013;DHT22;6065;48.138;16.402;2023-07-30T06:33:10;23.80;97.20
12013;DHT22;6065;48.138;16.402;2023-07-30T06:35:37;23.80;97.20
12013;DHT22;6065;48.138;16.402;2023-07-30T06:38:05;23.80;96.40
12013;DHT22;6065;48.138;16.402;2023-07-30T06:40:32;23.80;96.10
12013;DHT22;6065;48.138;16.402;2023-07-30T06:42:59;23.80;96.10
12013;DHT22;6065;48.138;16.402;2023-07-30T06:45:25;23.80;95.90
12013;DHT22;6065;48.138;16.402;2023-07-30T06:47:53;23.80;95.90
12013;DHT22;6065;48.138;16.402;2023-07-30T06:50:20;23.80;95.80
12013;DHT22;6065;48.138;16.402;2023-07-30T06:52:47;23.80;95.80
12013;DHT22;6065;48.138;16.402;2023-07-30T06:55:13;23.80;95.80
12013;DHT22;6065;48.138;16.402;2023-07-30T06:57:40;23.80;95.80
12013;DHT22;6065;48.138;16.402;2023-07-30T07:00:07;23.80;95.70
12013;DHT22;6065;48.138;16.402;2023-07-30T07:02:34;23.80;95.60
12013;DHT22;6065;48.138;16.402;2023-07-30T07:05:03;23.80;95.70
12013;DHT22;6065;48.138;16.402;2023-07-30T07:07:30;23.80;95.70
12013;DHT22;6065;48.138;16.402;2023-07-30T07:09:57;23.70;95.80
12013;DHT22;6065;48.138;16.402;2023-07-30T07:12:23;23.70;95.70
12013;DHT22;6065;48.138;16.402;2023-07-30T07:14:50;23.70;95.70
12013;DHT22;6065;48.138;16.402;2023-07-30T07:17:17;23.70;96.00
12013;DHT22;6065;48.138;16.402;2023-07-30T07:19:43;23.70;96.10
12013;DHT22;6065;48.138;16.402;2023-07-30T07:22:12;23.70;96.20
12013;DHT22;6065;48.138;16.402;2023-07-30T07:24:38;23.70;96.30
12013;DHT22;6065;48.138;16.402;2023-07-30T07:27:05;23.70;96.20
12013;DHT22;6065;48.138;16.402;2023-07-30T07:29:32;23.60;96.20
12013;DHT22;6065;48.138;16.402;2023-07-30T07:31:59;23.60;96.40
12013;DHT22;6065;48.138;16.402;2023-07-30T07:34:25;23.60;96.30
12013;DHT22;6065;48.138;16.402;2023-07-30T07:36:52;23.60;96.40
12013;DHT22;6065;48.138;16.402;2023-07-30T07:39:20;23.60;96.50
12013;DHT22;6065;48.138;16.402;2023-07-30T07:41:47;23.50;96.50
12013;DHT22;6065;48.138;16.402;2023-07-30T07:44:14;23.50;96.70
12013;DHT22;6065;48.138;16.402;2023-07-30T07:46:40;23.40;96.80
12013;DHT22;6065;48.138;16.402;2023-07-30T07:49:07;23.40;97.00
12013;DHT22;6065;48.138;16.402;2023-07-30T07:51:34;23.30;97.10
12013;DHT22;6065;48.138;16.402;2023-07-30T07:54:01;23.40;97.20
12013;DHT22;6065;48.138;16.402;2023-07-30T07:56:30;23.40;97.30
12013;DHT22;6065;48.138;16.402;2023-07-30T07:58:57;23.40;97.40
12013;DHT22;6065;48.138;16.402;2023-07-30T08:01:23;23.40;97.40
12013;DHT22;6065;48.138;16.402;2023-07-30T08:03:50;23.40;97.60
12013;DHT22;6065;48.138;16.402;2023-07-30T08:06:17;23.30;97.60
12013;DHT22;6065;48.138;16.402;2023-07-30T08:08:44;23.30;97.70
12013;DHT22;6065;48.138;16.402;2023-07-30T08:11:10;23.30;97.80
12013;DHT22;6065;48.138;16.402;2023-07-30T08:13:38;23.40;97.90
12013;DHT22;6065;48.138;16.402;2023-07-30T08:16:05;23.40;97.80
12013;DHT22;6065;48.138;16.402;2023-07-30T08:18:32;23.40;97.80
12013;DHT22;6065;48.138;16.402;2023-07-30T08:20:59;23.40;97.60
12013;DHT22;6065;48.138;16.402;2023-07-30T08:23:26;23.40;97.40
12013;DHT22;6065;48.138;16.402;2023-07-30T08:25:52;23.50;97.40
12013;DHT22;6065;48.138;16.402;2023-07-30T08:28:19;23.50;97.40
12013;DHT22;6065;48.138;16.402;2023-07-30T08:30:47;23.50;97.40
12013;DHT22;6065;48.138;16.402;2023-07-30T08:33:14;23.40;97.40
12013;DHT22;6065;48.138;16.402;2023-07-30T08:35:41;23.50;97.40
12013;DHT22;6065;48.138;16.402;2023-07-30T08:38:07;23.50;97.30
12013;DHT22;6065;48.138;16.402;2023-07-30T08:40:34;23.50;97.40
12013;DHT22;6065;48.138;16.402;2023-07-30T08:43:01;23.60;97.30
12013;DHT22;6065;48.138;16.402;2023-07-30T08:45:29;23.60;97.30
12013;DHT22;6065;48.138;16.402;2023-07-30T08:47:57;23.70;97.40
12013;DHT22;6065;48.138;16.402;2023-07-30T08:50:23;23.70;97.40
12013;DHT22;6065;48.138;16.402;2023-07-30T08:52:50;23.80;97.20
12013;DHT22;6065;48.138;16.402;2023-07-30T08:55:17;23.80;97.20
12013;DHT22;6065;48.138;16.402;2023-07-30T08:57:44;23.90;97.20
12013;DHT22;6065;48.138;16.402;2023-07-30T09:00:12;23.90;97.10
12013;DHT22;6065;48.138;16.402;2023-07-30T09:02:41;23.90;97.00
12013;DHT22;6065;48.138;16.402;2023-07-30T09:05:11;24.00;96.90
12013;DHT22;6065;48.138;16.402;2023-07-30T09:07:39;24.10;97.10
12013;DHT22;6065;48.138;16.402;2023-07-30T09:10:07;24.20;96.90
12013;DHT22;6065;48.138;16.402;2023-07-30T09:12:34;24.30;96.50
12013;DHT22;6065;48.138;16.402;2023-07-30T09:15:01;24.50;95.90
12013;DHT22;6065;48.138;16.402;2023-07-30T09:17:28;24.60;95.40
12013;DHT22;6065;48.138;16.402;2023-07-30T09:19:55;24.70;94.80
12013;DHT22;6065;48.138;16.402;2023-07-30T09:22:26;24.80;94.60
12013;DHT22;6065;48.138;16.402;2023-07-30T09:24:53;24.90;94.20
12013;DHT22;6065;48.138;16.402;2023-07-30T09:27:20;25.00;94.10
12013;DHT22;6065;48.138;16.402;2023-07-30T09:29:51;25.10;93.90
12013;DHT22;6065;48.138;16.402;2023-07-30T09:32:18;25.20;93.60
12013;DHT22;6065;48.138;16.402;2023-07-30T09:34:44;25.30;93.30
12013;DHT22;6065;48.138;16.402;2023-07-30T09:37:11;25.50;93.20
12013;DHT22;6065;48.138;16.402;2023-07-30T09:39:39;25.50;93.20
12013;DHT22;6065;48.138;16.402;2023-07-30T09:42:07;25.50;93.10
12013;DHT22;6065;48.138;16.402;2023-07-30T09:44:34;25.50;92.90
12013;DHT22;6065;48.138;16.402;2023-07-30T09:47:02;25.60;92.80
12013;DHT22;6065;48.138;16.402;2023-07-30T09:49:30;25.70;92.70
12013;DHT22;6065;48.138;16.402;2023-07-30T09:51:57;25.80;92.60
12013;DHT22;6065;48.138;16.402;2023-07-30T09:54:24;25.80;92.50
12013;DHT22;6065;48.138;16.402;2023-07-30T09:56:52;25.80;92.50
12013;DHT22;6065;48.138;16.402;2023-07-30T09:59:18;25.90;92.60
12013;DHT22;6065;48.138;16.402;2023-07-30T10:01:46;25.90;92.20
12013;DHT22;6065;48.138;16.402;2023-07-30T10:04:14;25.90;92.20
12013;DHT22;6065;48.138;16.402;2023-07-30T10:06:42;26.00;92.00
12013;DHT22;6065;48.138;16.402;2023-07-30T10:09:10;26.10;91.70
12013;DHT22;6065;48.138;16.402;2023-07-30T10:11:38;26.10;91.10
12013;DHT22;6065;48.138;16.402;2023-07-30T10:14:07;26.00;91.20
12013;DHT22;6065;48.138;16.402;2023-07-30T10:16:34;26.00;91.40
12013;DHT22;6065;48.138;16.402;2023-07-30T10:19:00;26.10;91.60
12013;DHT22;6065;48.138;16.402;2023-07-30T10:21:28;26.20;91.80
12013;DHT22;6065;48.138;16.402;2023-07-30T10:24:00;26.30;91.50
12013;DHT22;6065;48.138;16.402;2023-07-30T10:26:27;26.40;91.10
12013;DHT22;6065;48.138;16.402;2023-07-30T10:29:15;26.50;90.80
12013;DHT22;6065;48.138;16.402;2023-07-30T10:31:42;26.50;91.10
12013;DHT22;6065;48.138;16.402;2023-07-30T10:34:10;26.50;91.00
12013;DHT22;6065;48.138;16.402;2023-07-30T10:36:40;26.50;91.20
12013;DHT22;6065;48.138;16.402;2023-07-30T10:39:10;26.40;91.00
12013;DHT22;6065;48.138;16.402;2023-07-30T10:41:37;26.40;91.20
12013;DHT22;6065;48.138;16.402;2023-07-30T10:44:04;26.40;91.10
12013;DHT22;6065;48.138;16.402;2023-07-30T10:46:32;26.40;91.20
12013;DHT22;6065;48.138;16.402;2023-07-30T10:48:59;26.40;91.20
12013;DHT22;6065;48.138;16.402;2023-07-30T10:51:25;26.40;91.30
12013;DHT22;6065;48.138;16.402;2023-07-30T10:53:52;26.40;90.90
12013;DHT22;6065;48.138;16.402;2023-07-30T10:56:21;26.50;90.90
12013;DHT22;6065;48.138;16.402;2023-07-30T10:58:48;26.40;90.60
12013;DHT22;6065;48.138;16.402;2023-07-30T11:01:16;26.40;90.70
12013;DHT22;6065;48.138;16.402;2023-07-30T11:03:47;26.30;91.00
12013;DHT22;6065;48.138;16.402;2023-07-30T11:06:20;26.20;92.20
12013;DHT22;6065;48.138;16.402;2023-07-30T11:08:47;26.10;93.80
12013;DHT22;6065;48.138;16.402;2023-07-30T11:11:14;26.00;94.40
12013;DHT22;6065;48.138;16.402;2023-07-30T11:13:41;25.80;96.30
12013;DHT22;6065;48.138;16.402;2023-07-30T11:16:08;25.60;96.90
12013;DHT22;6065;48.138;16.402;2023-07-30T11:18:35;25.40;96.90
12013;DHT22;6065;48.138;16.402;2023-07-30T11:21:04;25.20;97.10
12013;DHT22;6065;48.138;16.402;2023-07-30T11:23:31;25.10;97.60
12013;DHT22;6065;48.138;16.402;2023-07-30T11:25:57;25.10;97.90
12013;DHT22;6065;48.138;16.402;2023-07-30T11:28:27;25.00;98.00
12013;DHT22;6065;48.138;16.402;2023-07-30T11:30:57;25.00;98.00
12013;DHT22;6065;48.138;16.402;2023-07-30T11:33:25;25.10;97.20
12013;DHT22;6065;48.138;16.402;2023-07-30T11:35:52;25.20;97.10
12013;DHT22;6065;48.138;16.402;2023-07-30T11:38:20;25.30;96.70
12013;DHT22;6065;48.138;16.402;2023-07-30T11:40:47;25.50;96.60
12013;DHT22;6065;48.138;16.402;2023-07-30T11:43:14;25.60;95.60
12013;DHT22;6065;48.138;16.402;2023-07-30T11:45:41;25.80;94.70
12013;DHT22;6065;48.138;16.402;2023-07-30T11:48:08;25.90;93.90
12013;DHT22;6065;48.138;16.402;2023-07-30T11:50:45;26.00;93.50
12013;DHT22;6065;48.138;16.402;2023-07-30T11:53:12;26.20;93.40
12013;DHT22;6065;48.138;16.402;2023-07-30T11:55:40;26.30;93.30
12013;DHT22;6065;48.138;16.402;2023-07-30T11:58:07;26.40;91.90
12013;DHT22;6065;48.138;16.402;2023-07-30T12:00:35;26.60;91.30
12013;DHT22;6065;48.138;16.402;2023-07-30T12:03:02;26.70;91.50
12013;DHT22;6065;48.138;16.402;2023-07-30T12:05:32;26.80;91.40
12013;DHT22;6065;48.138;16.402;2023-07-30T12:07:59;26.90;91.80
12013;DHT22;6065;48.138;16.402;2023-07-30T12:10:28;27.00;91.80
12013;DHT22;6065;48.138;16.402;2023-07-30T12:13:12;27.10;91.80
12013;DHT22;6065;48.138;16.402;2023-07-30T12:15:39;27.20;91.30
12013;DHT22;6065;48.138;16.402;2023-07-30T12:18:05;27.20;91.30
12013;DHT22;6065;48.138;16.402;2023-07-30T12:20:32;27.30;90.00
12013;DHT22;6065;48.138;16.402;2023-07-30T12:22:59;27.30;89.40
12013;DHT22;6065;48.138;16.402;2023-07-30T12:25:25;27.30;90.00
12013;DHT22;6065;48.138;16.402;2023-07-30T12:27:52;27.30;90.70
12013;DHT22;6065;48.138;16.402;2023-07-30T12:30:20;27.40;91.10
12013;DHT22;6065;48.138;16.402;2023-07-30T12:32:47;27.40;91.50
12013;DHT22;6065;48.138;16.402;2023-07-30T12:35:13;27.40;91.60
12013;DHT22;6065;48.138;16.402;2023-07-30T12:37:40;27.50;91.70
12013;DHT22;6065;48.138;16.402;2023-07-30T12:40:07;27.60;91.90
12013;DHT22;6065;48.138;16.402;2023-07-30T12:42:34;27.70;91.80
12013;DHT22;6065;48.138;16.402;2023-07-30T12:45:01;27.70;91.30
12013;DHT22;6065;48.138;16.402;2023-07-30T12:47:29;27.80;91.70
12013;DHT22;6065;48.138;16.402;2023-07-30T12:49:56;27.80;91.80
12013;DHT22;6065;48.138;16.402;2023-07-30T12:52:22;27.70;91.80
12013;DHT22;6065;48.138;16.402;2023-07-30T12:54:49;27.60;91.60
12013;DHT22;6065;48.138;16.402;2023-07-30T12:57:16;27.50;91.20
12013;DHT22;6065;48.138;16.402;2023-07-30T12:59:42;27.40;90.30
12013;DHT22;6065;48.138;16.402;2023-07-30T13:02:09;27.30;89.40
12013;DHT22;6065;48.138;16.402;2023-07-30T13:04:37;27.20;88.70
12013;DHT22;6065;48.138;16.402;2023-07-30T13:07:04;27.10;89.80
12013;DHT22;6065;48.138;16.402;2023-07-30T13:09:30;27.10;90.30
12013;DHT22;6065;48.138;16.402;2023-07-30T13:11:57;27.20;90.40
12013;DHT22;6065;48.138;16.402;2023-07-30T13:14:24;27.30;90.40
12013;DHT22;6065;48.138;16.402;2023-07-30T13:16:51;27.40;90.60
12013;DHT22;6065;48.138;16.402;2023-07-30T13:19:18;27.50;90.20
12013;DHT22;6065;48.138;16.402;2023-07-30T13:21:46;27.60;90.10
12013;DHT22;6065;48.138;16.402;2023-07-30T13:24:12;27.70;88.50
12013;DHT22;6065;48.138;16.402;2023-07-30T13:26:39;27.70;89.30
12013;DHT22;6065;48.138;16.402;2023-07-30T13:29:06;27.80;87.70
12013;DHT22;6065;48.138;16.402;2023-07-30T13:31:32;27.80;88.10
12013;DHT22;6065;48.138;16.402;2023-07-30T13:33:59;27.80;88.30
12013;DHT22;6065;48.138;16.402;2023-07-30T13:36:26;27.80;88.20
12013;DHT22;6065;48.138;16.402;2023-07-30T13:38:54;27.90;88.00
12013;DHT22;6065;48.138;16.402;2023-07-30T13:41:20;28.00;88.20
12013;DHT22;6065;48.138;16.402;2023-07-30T13:43:47;28.10;88.20
12013;DHT22;6065;48.138;16.402;2023-07-30T13:46:14;28.20;87.60
12013;DHT22;6065;48.138;16.402;2023-07-30T13:48:41;28.30;87.00
12013;DHT22;6065;48.138;16.402;2023-07-30T13:51:07;28.30;86.50
12013;DHT22;6065;48.138;16.402;2023-07-30T13:53:34;28.40;86.80
12013;DHT22;6065;48.138;16.402;2023-07-30T13:56:05;28.40;86.80
12013;DHT22;6065;48.138;16.402;2023-07-30T13:58:31;28.50;86.20
12013;DHT22;6065;48.138;16.402;2023-07-30T14:00:58;28.60;85.50
12013;DHT22;6065;48.138;16.402;2023-07-30T14:03:25;28.60;85.20
12013;DHT22;6065;48.138;16.402;2023-07-30T14:05:51;28.50;85.70
12013;DHT22;6065;48.138;16.402;2023-07-30T14:08:18;28.50;86.00
12013;DHT22;6065;48.138;16.402;2023-07-30T14:10:45;28.50;85.90
12013;DHT22;6065;48.138;16.402;2023-07-30T14:13:13;28.40;85.70
12013;DHT22;6065;48.138;16.402;2023-07-30T14:15:40;28.30;85.80
12013;DHT22;6065;48.138;16.402;2023-07-30T14:18:09;28.20;85.90
12013;DHT22;6065;48.138;16.402;2023-07-30T14:20:36;28.10;86.00
12013;DHT22;6065;48.138;16.402;2023-07-30T14:23:03;28.00;86.00
12013;DHT22;6065;48.138;16.402;2023-07-30T14:25:30;28.00;86.90
12013;DHT22;6065;48.138;16.402;2023-07-30T14:27:57;27.90;90.50
12013;DHT22;6065;48.138;16.402;2023-07-30T14:30:25;27.90;91.10
12013;DHT22;6065;48.138;16.402;2023-07-30T14:32:52;27.80;92.80
12013;DHT22;6065;48.138;16.402;2023-07-30T14:35:19;27.70;93.40
12013;DHT22;6065;48.138;16.402;2023-07-30T14:37:46;27.60;94.60
12013;DHT22;6065;48.138;16.402;2023-07-30T14:40:12;27.50;95.10
12013;DHT22;6065;48.138;16.402;2023-07-30T14:42:39;27.40;94.80
12013;DHT22;6065;48.138;16.402;2023-07-30T14:45:06;27.20;93.80
12013;DHT22;6065;48.138;16.402;2023-07-30T14:47:35;27.10;93.90
12013;DHT22;6065;48.138;16.402;2023-07-30T14:50:01;27.00;94.10
12013;DHT22;6065;48.138;16.402;2023-07-30T14:52:28;26.90;94.40
12013;DHT22;6065;48.138;16.402;2023-07-30T14:54:55;26.70;94.40
12013;DHT22;6065;48.138;16.402;2023-07-30T14:57:21;26.60;94.70
12013;DHT22;6065;48.138;16.402;2023-07-30T14:59:48;26.50;94.70
12013;DHT22;6065;48.138;16.402;2023-07-30T15:02:15;26.30;93.80
12013;DHT22;6065;48.138;16.402;2023-07-30T15:04:43;26.20;94.30
12013;DHT22;6065;48.138;16.402;2023-07-30T15:07:09;26.00;94.90
12013;DHT22;6065;48.138;16.402;2023-07-30T15:09:36;25.80;95.10
12013;DHT22;6065;48.138;16.402;2023-07-30T15:12:03;25.70;95.30
12013;DHT22;6065;48.138;16.402;2023-07-30T15:14:32;25.50;96.20
12013;DHT22;6065;48.138;16.402;2023-07-30T15:16:59;25.50;96.70
12013;DHT22;6065;48.138;16.402;2023-07-30T15:19:26;25.50;97.20
12013;DHT22;6065;48.138;16.402;2023-07-30T15:21:54;25.60;97.30
12013;DHT22;6065;48.138;16.402;2023-07-30T15:24:20;25.60;96.90
12013;DHT22;6065;48.138;16.402;2023-07-30T15:26:47;25.60;97.40
12013;DHT22;6065;48.138;16.402;2023-07-30T15:29:14;25.60;97.60